sensor_id;sensor_type;location;lat;lon;timestamp;pressure;altitude;pressure_sealevel;temperature;humidity
9225;BME280;4647;48.072;11.616;2023-05-20T00:00:14;95277.38;;;13.13;77.14
9225;BME280;4647;48.072;11.616;2023-05-20T00:02:44;95278.91;;;12.98;78.25
9225;BME280;4647;48.072;11.616;2023-05-20T00:05:12;95268.03;;;12.98;78.06
9225;BME280;4647;48.072;11.616;2023-05-20T00:07:43;95269.84;;;13.04;78.05
9225;BME280;4647;48.072;11.616;2023-05-20T00:10:12;95265.66;;;12.83;78.49
9225;BME280;4647;48.072;11.616;2023-05-20T00:12:40;95270.00;;;12.81;78.73
9225;BME280;4647;48.072;11.616;2023-05-20T00:15:09;95267.19;;;12.84;77.94
9225;BME280;4647;48.072;11.616;2023-05-20T00:17:39;95262.69;;;12.78;77.94
9225;BME280;4647;48.072;11.616;2023-05-20T00:20:08;95266.34;;;12.87;77.53
9225;BME280;4647;48.072;11.616;2023-05-20T00:22:36;95271.25;;;12.60;78.18
9225;BME280;4647;48.072;11.616;2023-05-20T00:25:08;95260.47;;;12.73;77.34
9225;BME280;4647;48.072;11.616;2023-05-20T00:27:39;95254.53;;;12.62;77.23
9225;BME280;4647;48.072;11.616;2023-05-20T00:30:08;95276.09;;;12.69;77.23
9225;BME280;4647;48.072;11.616;2023-05-20T00:32:37;95274.06;;;12.73;76.99
9225;BME280;4647;48.072;11.616;2023-05-20T00:35:07;95244.16;;;12.56;76.88
9225;BME280;4647;48.072;11.616;2023-05-20T00:37:35;95264.53;;;12.65;77.10
9225;BME280;4647;48.072;11.616;2023-05-20T00:40:07;95257.16;;;12.65;77.32
9225;BME280;4647;48.072;11.616;2023-05-20T00:42:36;95269.56;;;12.66;77.08
9225;BME280;4647;48.072;11.616;2023-05-20T00:45:05;95261.91;;;12.25;78.66
9225;BME280;4647;48.072;11.616;2023-05-20T00:47:34;95262.03;;;12.38;78.41
9225;BME280;4647;48.072;11.616;2023-05-20T00:50:04;95265.91;;;12.56;77.82
9225;BME280;4647;48.072;11.616;2023-05-20T00:52:35;95269.28;;;12.60;77.59
9225;BME280;4647;48.072;11.616;2023-05-20T00:55:07;95265.03;;;12.23;78.86
9225;BME280;4647;48.072;11.616;2023-05-20T00:57:35;95263.66;;;12.35;78.47
9225;BME280;4647;48.072;11.616;2023-05-20T01:00:06;95254.53;;;12.25;78.53
9225;BME280;4647;48.072;11.616;2023-05-20T01:02:38;95263.06;;;12.44;78.20
9225;BME280;4647;48.072;11.616;2023-05-20T01:05:08;95254.22;;;12.40;77.96
9225;BME280;4647;48.072;11.616;2023-05-20T01:07:36;95241.25;;;12.47;77.77
9225;BME280;4647;48.072;11.616;2023-05-20T01:10:08;95250.69;;;12.59;77.47
9225;BME280;4647;48.072;11.616;2023-05-20T01:12:39;95251.25;;;12.50;78.07
9225;BME280;4647;48.072;11.616;2023-05-20T01:15:10;95249.16;;;12.58;77.50
9225;BME280;4647;48.072;11.616;2023-05-20T01:17:42;95244.75;;;12.64;77.73
9225;BME280;4647;48.072;11.616;2023-05-20T01:20:12;95242.88;;;12.61;77.36
9225;BME280;4647;48.072;11.616;2023-05-20T01:22:51;95242.44;;;12.46;78.27
9225;BME280;4647;48.072;11.616;2023-05-20T01:25:20;95246.94;;;12.53;77.65
9225;BME280;4647;48.072;11.616;2023-05-20T01:27:49;95236.97;;;12.30;78.63
9225;BME280;4647;48.072;11.616;2023-05-20T01:30:19;95248.13;;;12.36;78.86
9225;BME280;4647;48.072;11.616;2023-05-20T01:32:53;95246.25;;;12.49;78.42
9225;BME280;4647;48.072;11.616;2023-05-20T01:35:22;95244.38;;;12.46;78.59
9225;BME280;4647;48.072;11.616;2023-05-20T01:37:55;95236.91;;;12.50;78.48
9225;BME280;4647;48.072;11.616;2023-05-20T01:40:26;95247.28;;;12.71;77.78
9225;BME280;4647;48.072;11.616;2023-05-20T01:42:55;95232.09;;;12.57;78.14
9225;BME280;4647;48.072;11.616;2023-05-20T01:45:25;95229.53;;;12.34;79.29
9225;BME280;4647;48.072;11.616;2023-05-20T01:47:53;95230.88;;;12.42;78.98
9225;BME280;4647;48.072;11.616;2023-05-20T01:50:22;95232.84;;;12.42;79.01
9225;BME280;4647;48.072;11.616;2023-05-20T01:52:51;95226.88;;;12.31;79.58
9225;BME280;4647;48.072;11.616;2023-05-20T01:55:22;95227.78;;;12.24;79.91
9225;BME280;4647;48.072;11.616;2023-05-20T01:57:50;95221.72;;;12.36;79.72
9225;BME280;4647;48.072;11.616;2023-05-20T02:00:18;95217.19;;;12.29;79.92
9225;BME280;4647;48.072;11.616;2023-05-20T02:02:47;95226.47;;;12.48;79.28
9225;BME280;4647;48.072;11.616;2023-05-20T02:05:15;95217.41;;;12.55;78.93
9225;BME280;4647;48.072;11.616;2023-05-20T02:07:44;95211.59;;;12.53;79.18
9225;BME280;4647;48.072;11.616;2023-05-20T02:10:12;95209.31;;;12.35;79.85
9225;BME280;4647;48.072;11.616;2023-05-20T02:12:43;95219.16;;;12.45;79.56
9225;BME280;4647;48.072;11.616;2023-05-20T02:15:12;95223.66;;;12.52;79.39
9225;BME280;4647;48.072;11.616;2023-05-20T02:17:40;95226.06;;;12.66;78.95
9225;BME280;4647;48.072;11.616;2023-05-20T02:20:11;95224.69;;;12.42;79.63
9225;BME280;4647;48.072;11.616;2023-05-20T02:22:39;95232.19;;;12.54;79.72
9225;BME280;4647;48.072;11.616;2023-05-20T02:25:08;95236.75;;;12.57;79.62
9225;BME280;4647;48.072;11.616;2023-05-20T02:27:37;95236.31;;;12.42;80.05
9225;BME280;4647;48.072;11.616;2023-05-20T02:30:08;95227.06;;;12.40;80.33
9225;BME280;4647;48.072;11.616;2023-05-20T02:32:37;95231.97;;;12.45;80.07
9225;BME280;4647;48.072;11.616;2023-05-20T02:35:07;95227.06;;;12.40;80.03
9225;BME280;4647;48.072;11.616;2023-05-20T02:37:35;95223.78;;;12.28;80.46
9225;BME280;4647;48.072;11.616;2023-05-20T02:40:06;95195.50;;;12.10;80.28
9225;BME280;4647;48.072;11.616;2023-05-20T02:42:35;95220.53;;;12.37;80.44
9225;BME280;4647;48.072;11.616;2023-05-20T02:45:04;95230.75;;;12.29;81.02
9225;BME280;4647;48.072;11.616;2023-05-20T02:47:36;95221.56;;;12.07;82.00
9225;BME280;4647;48.072;11.616;2023-05-20T02:50:05;95214.44;;;12.13;81.27
9225;BME280;4647;48.072;11.616;2023-05-20T02:52:34;95226.06;;;12.14;81.47
9225;BME280;4647;48.072;11.616;2023-05-20T02:55:05;95227.44;;;12.22;81.32
9225;BME280;4647;48.072;11.616;2023-05-20T02:57:33;95228.13;;;12.26;81.18
9225;BME280;4647;48.072;11.616;2023-05-20T03:00:03;95231.38;;;12.37;80.79
9225;BME280;4647;48.072;11.616;2023-05-20T03:02:38;95210.97;;;12.29;80.99
9225;BME280;4647;48.072;11.616;2023-05-20T03:05:07;95225.34;;;12.46;80.71
9225;BME280;4647;48.072;11.616;2023-05-20T03:07:36;95221.28;;;12.38;81.17
9225;BME280;4647;48.072;11.616;2023-05-20T03:10:06;95228.06;;;12.46;80.65
9225;BME280;4647;48.072;11.616;2023-05-20T03:12:35;95223.50;;;12.43;81.35
9225;BME280;4647;48.072;11.616;2023-05-20T03:15:05;95226.38;;;12.36;81.69
9225;BME280;4647;48.072;11.616;2023-05-20T03:17:37;95216.84;;;12.27;82.06
9225;BME280;4647;48.072;11.616;2023-05-20T03:20:06;95225.41;;;12.26;82.01
9225;BME280;4647;48.072;11.616;2023-05-20T03:22:36;95218.31;;;12.32;81.95
9225;BME280;4647;48.072;11.616;2023-05-20T03:25:05;95213.44;;;12.23;82.35
9225;BME280;4647;48.072;11.616;2023-05-20T03:27:34;95214.66;;;12.39;81.94
9225;BME280;4647;48.072;11.616;2023-05-20T03:30:04;95219.75;;;12.37;82.12
9225;BME280;4647;48.072;11.616;2023-05-20T03:32:33;95225.44;;;12.42;81.65
9225;BME280;4647;48.072;11.616;2023-05-20T03:35:06;95222.13;;;12.51;81.26
9225;BME280;4647;48.072;11.616;2023-05-20T03:37:35;95218.13;;;12.39;81.92
9225;BME280;4647;48.072;11.616;2023-05-20T03:40:05;95224.16;;;12.47;81.60
9225;BME280;4647;48.072;11.616;2023-05-20T03:42:35;95227.44;;;12.58;81.06
9225;BME280;4647;48.072;11.616;2023-05-20T03:45:05;95230.63;;;12.53;81.38
9225;BME280;4647;48.072;11.616;2023-05-20T03:47:33;95210.41;;;12.38;80.98
9225;BME280;4647;48.072;11.616;2023-05-20T03:50:05;95230.44;;;12.44;81.42
9225;BME280;4647;48.072;11.616;2023-05-20T03:52:33;95232.66;;;12.33;82.17
9225;BME280;4647;48.072;11.616;2023-05-20T03:55:03;95230.75;;;12.29;82.39
9225;BME280;4647;48.072;11.616;2023-05-20T03:57:32;95207.09;;;11.94;82.97
9225;BME280;4647;48.072;11.616;2023-05-20T04:00:00;95227.75;;;12.08;82.81
9225;BME280;4647;48.072;11.616;2023-05-20T04:02:36;95242.88;;;12.25;82.82
9225;BME280;4647;48.072;11.616;2023-05-20T04:05:08;95234.09;;;12.37;82.55
9225;BME280;4647;48.072;11.616;2023-05-20T04:07:36;95224.00;;;12.38;82.30
9225;BME280;4647;48.072;11.616;2023-05-20T04:10:06;95220.06;;;12.22;82.63
9225;BME280;4647;48.072;11.616;2023-05-20T04:12:34;95218.94;;;12.20;82.98
9225;BME280;4647;48.072;11.616;2023-05-20T04:15:04;95224.50;;;12.33;82.89
9225;BME280;4647;48.072;11.616;2023-05-20T04:17:33;95222.13;;;12.51;81.88
9225;BME280;4647;48.072;11.616;2023-05-20T04:20:03;95219.75;;;12.37;82.20
9225;BME280;4647;48.072;11.616;2023-05-20T04:22:35;95229.94;;;12.49;81.87
9225;BME280;4647;48.072;11.616;2023-05-20T04:25:04;95227.91;;;12.37;82.24
9225;BME280;4647;48.072;11.616;2023-05-20T04:27:32;95222.22;;;12.47;82.07
9225;BME280;4647;48.072;11.616;2023-05-20T04:30:02;95201.00;;;12.42;81.93
9225;BME280;4647;48.072;11.616;2023-05-20T04:32:31;95212.97;;;12.45;82.48
9225;BME280;4647;48.072;11.616;2023-05-20T04:35:00;95217.28;;;12.42;82.78
9225;BME280;4647;48.072;11.616;2023-05-20T04:37:35;95218.94;;;12.56;82.21
9225;BME280;4647;48.072;11.616;2023-05-20T04:40:05;95217.31;;;12.58;81.61
9225;BME280;4647;48.072;11.616;2023-05-20T04:42:33;95217.53;;;12.48;82.34
9225;BME280;4647;48.072;11.616;2023-05-20T04:45:03;95210.94;;;12.65;81.74
9225;BME280;4647;48.072;11.616;2023-05-20T04:47:33;95216.47;;;12.62;81.57
9225;BME280;4647;48.072;11.616;2023-05-20T04:50:04;95210.34;;;12.57;81.46
9225;BME280;4647;48.072;11.616;2023-05-20T04:52:38;95208.38;;;12.74;80.67
9225;BME280;4647;48.072;11.616;2023-05-20T04:55:08;95214.34;;;12.69;81.02
9225;BME280;4647;48.072;11.616;2023-05-20T04:57:36;95217.41;;;12.55;81.50
9225;BME280;4647;48.072;11.616;2023-05-20T05:00:07;95215.28;;;12.79;80.93
9225;BME280;4647;48.072;11.616;2023-05-20T05:02:35;95220.53;;;12.86;80.28
9225;BME280;4647;48.072;11.616;2023-05-20T05:05:04;95222.41;;;12.89;79.97
9225;BME280;4647;48.072;11.616;2023-05-20T05:07:35;95216.38;;;12.98;79.42
9225;BME280;4647;48.072;11.616;2023-05-20T05:10:05;95221.91;;;12.94;79.86
9225;BME280;4647;48.072;11.616;2023-05-20T05:12:33;95214.44;;;12.82;79.74
9225;BME280;4647;48.072;11.616;2023-05-20T05:15:02;95209.41;;;12.64;80.28
9225;BME280;4647;48.072;11.616;2023-05-20T05:17:30;95204.47;;;12.75;80.37
9225;BME280;4647;48.072;11.616;2023-05-20T05:19:58;95204.00;;;12.80;80.12
9225;BME280;4647;48.072;11.616;2023-05-20T05:22:27;95195.84;;;12.80;79.95
9225;BME280;4647;48.072;11.616;2023-05-20T05:24:58;95200.41;;;12.67;80.27
9225;BME280;4647;48.072;11.616;2023-05-20T05:27:26;95196.06;;;12.86;79.88
9225;BME280;4647;48.072;11.616;2023-05-20T05:29:55;95194.94;;;13.16;78.58
9225;BME280;4647;48.072;11.616;2023-05-20T05:32:23;95198.69;;;13.22;77.85
9225;BME280;4647;48.072;11.616;2023-05-20T05:34:52;95188.41;;;13.42;77.58
9225;BME280;4647;48.072;11.616;2023-05-20T05:37:20;95190.16;;;13.36;77.45
9225;BME280;4647;48.072;11.616;2023-05-20T05:39:49;95199.50;;;13.64;76.68
9225;BME280;4647;48.072;11.616;2023-05-20T05:42:20;95198.41;;;13.33;77.62
9225;BME280;4647;48.072;11.616;2023-05-20T05:44:48;95207.41;;;13.88;75.83
9225;BME280;4647;48.072;11.616;2023-05-20T05:47:17;95202.69;;;13.75;75.09
9225;BME280;4647;48.072;11.616;2023-05-20T05:49:46;95210.69;;;13.95;74.41
9225;BME280;4647;48.072;11.616;2023-05-20T05:52:16;95207.88;;;13.70;75.13
9225;BME280;4647;48.072;11.616;2023-05-20T05:54:44;95208.50;;;13.90;74.16
9225;BME280;4647;48.072;11.616;2023-05-20T05:57:12;95202.47;;;14.24;73.79
9225;BME280;4647;48.072;11.616;2023-05-20T05:59:43;95207.59;;;14.22;72.74
9225;BME280;4647;48.072;11.616;2023-05-20T06:02:12;95221.38;;;14.02;73.35
9225;BME280;4647;48.072;11.616;2023-05-20T06:04:40;95211.50;;;14.21;72.52
9225;BME280;4647;48.072;11.616;2023-05-20T06:07:09;95198.19;;;14.36;71.90
9225;BME280;4647;48.072;11.616;2023-05-20T06:09:37;95216.78;;;14.54;71.85
9225;BME280;4647;48.072;11.616;2023-05-20T06:12:06;95209.34;;;14.54;72.59
9225;BME280;4647;48.072;11.616;2023-05-20T06:14:35;95212.81;;;14.93;70.63
9225;BME280;4647;48.072;11.616;2023-05-20T06:17:06;95213.41;;;15.10;69.39
9225;BME280;4647;48.072;11.616;2023-05-20T06:19:34;95209.84;;;15.34;67.80
9225;BME280;4647;48.072;11.616;2023-05-20T06:22:03;95208.44;;;15.43;67.80
9225;BME280;4647;48.072;11.616;2023-05-20T06:24:32;95198.66;;;15.20;69.00
9225;BME280;4647;48.072;11.616;2023-05-20T06:27:01;95205.09;;;15.13;67.74
9225;BME280;4647;48.072;11.616;2023-05-20T06:29:30;95200.91;;;14.87;68.47
9225;BME280;4647;48.072;11.616;2023-05-20T06:31:58;95177.06;;;14.65;69.20
9225;BME280;4647;48.072;11.616;2023-05-20T06:34:29;95193.06;;;14.89;68.83
9225;BME280;4647;48.072;11.616;2023-05-20T06:36:57;95196.66;;;14.98;68.79
9225;BME280;4647;48.072;11.616;2023-05-20T06:39:26;95196.16;;;15.13;68.70
9225;BME280;4647;48.072;11.616;2023-05-20T06:41:55;95187.06;;;14.94;68.84
9225;BME280;4647;48.072;11.616;2023-05-20T06:44:24;95191.88;;;15.24;68.27
9225;BME280;4647;48.072;11.616;2023-05-20T06:46:52;95202.94;;;15.08;67.75
9225;BME280;4647;48.072;11.616;2023-05-20T06:49:21;95202.34;;;14.91;67.44
9225;BME280;4647;48.072;11.616;2023-05-20T06:51:52;95196.69;;;15.20;67.10
9225;BME280;4647;48.072;11.616;2023-05-20T06:54:20;95188.59;;;15.51;65.75
9225;BME280;4647;48.072;11.616;2023-05-20T06:56:48;95191.03;;;16.15;63.98
9225;BME280;4647;48.072;11.616;2023-05-20T06:59:17;95197.34;;;16.34;63.85
9225;BME280;4647;48.072;11.616;2023-05-20T07:01:45;95196.13;;;16.04;64.26
9225;BME280;4647;48.072;11.616;2023-05-20T07:04:13;95181.50;;;15.54;66.34
9225;BME280;4647;48.072;11.616;2023-05-20T07:06:42;95191.00;;;15.62;66.65
9225;BME280;4647;48.072;11.616;2023-05-20T07:09:13;95195.00;;;15.35;67.20
9225;BME280;4647;48.072;11.616;2023-05-20T07:11:41;95203.81;;;15.74;66.30
9225;BME280;4647;48.072;11.616;2023-05-20T07:14:09;95196.22;;;15.56;66.90
9225;BME280;4647;48.072;11.616;2023-05-20T07:16:38;95192.31;;;15.79;65.57
9225;BME280;4647;48.072;11.616;2023-05-20T07:19:06;95192.41;;;15.88;65.45
9225;BME280;4647;48.072;11.616;2023-05-20T07:21:35;95190.56;;;15.85;65.54
9225;BME280;4647;48.072;11.616;2023-05-20T07:24:03;95195.09;;;16.10;64.53
9225;BME280;4647;48.072;11.616;2023-05-20T07:26:35;95188.78;;;15.91;65.41
9225;BME280;4647;48.072;11.616;2023-05-20T07:29:04;95195.50;;;15.78;65.88
9225;BME280;4647;48.072;11.616;2023-05-20T07:31:32;95189.75;;;16.07;65.44
9225;BME280;4647;48.072;11.616;2023-05-20T07:34:01;95181.53;;;16.69;63.30
9225;BME280;4647;48.072;11.616;2023-05-20T07:36:29;95190.91;;;17.26;61.23
9225;BME280;4647;48.072;11.616;2023-05-20T07:38:57;95199.91;;;17.27;60.81
9225;BME280;4647;48.072;11.616;2023-05-20T07:41:26;95196.59;;;17.68;60.14
9225;BME280;4647;48.072;11.616;2023-05-20T07:43:57;95190.31;;;17.40;59.25
9225;BME280;4647;48.072;11.616;2023-05-20T07:46:25;95183.78;;;17.19;60.47
9225;BME280;4647;48.072;11.616;2023-05-20T07:48:54;95174.94;;;17.06;60.94
9225;BME280;4647;48.072;11.616;2023-05-20T07:51:23;95180.41;;;17.25;61.01
9225;BME280;4647;48.072;11.616;2023-05-20T07:53:51;95169.28;;;17.01;61.96
9225;BME280;4647;48.072;11.616;2023-05-20T07:56:20;95173.13;;;17.22;61.48
9225;BME280;4647;48.072;11.616;2023-05-20T07:58:51;95161.13;;;17.28;60.10
9225;BME280;4647;48.072;11.616;2023-05-20T08:01:22;95160.94;;;17.23;60.46
9225;BME280;4647;48.072;11.616;2023-05-20T08:03:51;95172.41;;;17.76;59.29
9225;BME280;4647;48.072;11.616;2023-05-20T08:06:20;95184.09;;;17.67;58.58
9225;BME280;4647;48.072;11.616;2023-05-20T08:08:49;95174.81;;;17.10;59.64
9225;BME280;4647;48.072;11.616;2023-05-20T08:11:18;95176.78;;;17.09;61.03
9225;BME280;4647;48.072;11.616;2023-05-20T08:13:47;95174.75;;;16.92;61.62
9225;BME280;4647;48.072;11.616;2023-05-20T08:16:15;95171.75;;;17.44;60.83
9225;BME280;4647;48.072;11.616;2023-05-20T08:18:46;95172.22;;;17.52;59.95
9225;BME280;4647;48.072;11.616;2023-05-20T08:21:15;95162.16;;;17.49;59.60
9225;BME280;4647;48.072;11.616;2023-05-20T08:23:43;95161.72;;;17.78;58.97
9225;BME280;4647;48.072;11.616;2023-05-20T08:26:11;95171.63;;;17.57;59.74
9225;BME280;4647;48.072;11.616;2023-05-20T08:28:43;95153.81;;;17.80;58.40
9225;BME280;4647;48.072;11.616;2023-05-20T08:31:11;95160.22;;;18.28;57.17
9225;BME280;4647;48.072;11.616;2023-05-20T08:33:39;95151.22;;;17.86;57.70
9225;BME280;4647;48.072;11.616;2023-05-20T08:36:10;95159.75;;;17.78;58.17
9225;BME280;4647;48.072;11.616;2023-05-20T08:38:39;95118.22;;;18.13;56.71
9225;BME280;4647;48.072;11.616;2023-05-20T08:41:07;95138.97;;;17.96;57.83
9225;BME280;4647;48.072;11.616;2023-05-20T08:43:36;95126.44;;;18.13;57.85
9225;BME280;4647;48.072;11.616;2023-05-20T08:46:05;95149.13;;;18.56;56.28
9225;BME280;4647;48.072;11.616;2023-05-20T08:48:34;95146.00;;;18.39;56.41
9225;BME280;4647;48.072;11.616;2023-05-20T08:51:03;95152.72;;;18.38;57.24
9225;BME280;4647;48.072;11.616;2023-05-20T08:53:36;95139.56;;;18.09;57.71
9225;BME280;4647;48.072;11.616;2023-05-20T08:56:05;95148.25;;;18.83;55.82
9225;BME280;4647;48.072;11.616;2023-05-20T08:58:34;95157.78;;;18.96;55.51
9225;BME280;4647;48.072;11.616;2023-05-20T09:01:02;95157.44;;;18.37;56.91
9225;BME280;4647;48.072;11.616;2023-05-20T09:03:32;95151.53;;;17.60;59.07
9225;BME280;4647;48.072;11.616;2023-05-20T09:06:04;95142.94;;;18.04;58.32
9225;BME280;4647;48.072;11.616;2023-05-20T09:08:36;95149.38;;;18.76;55.72
9225;BME280;4647;48.072;11.616;2023-05-20T09:11:04;95151.13;;;18.88;55.37
9225;BME280;4647;48.072;11.616;2023-05-20T09:13:33;95137.50;;;19.56;53.68
9225;BME280;4647;48.072;11.616;2023-05-20T09:16:01;95149.78;;;20.14;51.73
9225;BME280;4647;48.072;11.616;2023-05-20T09:18:31;95151.66;;;20.38;50.74
9225;BME280;4647;48.072;11.616;2023-05-20T09:21:04;95145.88;;;20.21;51.46
9225;BME280;4647;48.072;11.616;2023-05-20T09:23:38;95146.25;;;20.43;50.30
9225;BME280;4647;48.072;11.616;2023-05-20T09:26:06;95138.88;;;20.20;50.60
9225;BME280;4647;48.072;11.616;2023-05-20T09:28:35;95139.88;;;20.52;48.92
9225;BME280;4647;48.072;11.616;2023-05-20T09:31:05;95140.47;;;19.82;49.37
9225;BME280;4647;48.072;11.616;2023-05-20T09:33:36;95140.56;;;20.17;48.52
9225;BME280;4647;48.072;11.616;2023-05-20T09:36:06;95143.13;;;20.21;48.58
9225;BME280;4647;48.072;11.616;2023-05-20T09:38:38;95148.66;;;20.71;46.79
9225;BME280;4647;48.072;11.616;2023-05-20T09:41:11;95137.75;;;20.97;47.24
9225;BME280;4647;48.072;11.616;2023-05-20T09:43:39;95147.00;;;20.79;47.33
9225;BME280;4647;48.072;11.616;2023-05-20T09:46:09;95143.13;;;20.86;47.40
9225;BME280;4647;48.072;11.616;2023-05-20T09:48:38;95147.69;;;21.50;45.65
9225;BME280;4647;48.072;11.616;2023-05-20T09:51:08;95138.66;;;20.38;47.58
9225;BME280;4647;48.072;11.616;2023-05-20T09:53:40;95141.50;;;20.29;48.44
9225;BME280;4647;48.072;11.616;2023-05-20T09:56:10;95137.16;;;20.37;48.44
9225;BME280;4647;48.072;11.616;2023-05-20T09:58:39;95130.13;;;20.21;48.91
9225;BME280;4647;48.072;11.616;2023-05-20T10:01:09;95129.94;;;20.75;47.31
9225;BME280;4647;48.072;11.616;2023-05-20T10:03:38;95127.91;;;21.10;46.47
9225;BME280;4647;48.072;11.616;2023-05-20T10:06:19;95127.16;;;20.90;46.74
9225;BME280;4647;48.072;11.616;2023-05-20T10:09:08;95116.47;;;20.97;46.52
9225;BME280;4647;48.072;11.616;2023-05-20T10:11:47;95104.34;;;20.89;46.55
9225;BME280;4647;48.072;11.616;2023-05-20T10:14:33;95124.44;;;21.30;46.05
9225;BME280;4647;48.072;11.616;2023-05-20T10:17:16;95119.56;;;21.45;45.82
9225;BME280;4647;48.072;11.616;2023-05-20T10:19:45;95114.00;;;21.92;45.51
9225;BME280;4647;48.072;11.616;2023-05-20T10:22:25;95116.00;;;22.49;42.04
9225;BME280;4647;48.072;11.616;2023-05-20T10:25:03;95098.47;;;22.52;42.56
9225;BME280;4647;48.072;11.616;2023-05-20T10:27:42;95117.00;;;22.88;41.84
9225;BME280;4647;48.072;11.616;2023-05-20T10:30:17;95124.06;;;22.52;41.53
9225;BME280;4647;48.072;11.616;2023-05-20T10:32:51;95111.69;;;22.42;42.80
9225;BME280;4647;48.072;11.616;2023-05-20T10:35:23;95109.16;;;22.39;43.32
9225;BME280;4647;48.072;11.616;2023-05-20T10:38:05;95100.50;;;22.57;43.37
9225;BME280;4647;48.072;11.616;2023-05-20T10:40:37;95106.03;;;22.62;42.77
9225;BME280;4647;48.072;11.616;2023-05-20T10:43:11;95073.53;;;22.41;43.75
9225;BME280;4647;48.072;11.616;2023-05-20T10:45:50;95090.06;;;22.35;42.31
9225;BME280;4647;48.072;11.616;2023-05-20T10:48:20;95098.19;;;22.18;42.95
9225;BME280;4647;48.072;11.616;2023-05-20T10:50:49;95095.91;;;22.11;42.76
9225;BME280;4647;48.072;11.616;2023-05-20T10:53:21;95095.47;;;22.55;43.25
9225;BME280;4647;48.072;11.616;2023-05-20T10:55:53;95089.91;;;22.50;43.84
9225;BME280;4647;48.072;11.616;2023-05-20T10:58:23;95080.66;;;22.95;43.66
9225;BME280;4647;48.072;11.616;2023-05-20T11:00:53;95094.06;;;23.19;42.23
9225;BME280;4647;48.072;11.616;2023-05-20T11:03:22;95094.91;;;22.88;41.74
9225;BME280;4647;48.072;11.616;2023-05-20T11:05:51;95086.22;;;23.07;41.99
9225;BME280;4647;48.072;11.616;2023-05-20T11:08:19;95078.34;;;22.94;41.37
9225;BME280;4647;48.072;11.616;2023-05-20T11:10:48;95079.09;;;23.65;40.82
9225;BME280;4647;48.072;11.616;2023-05-20T11:13:19;95070.44;;;23.30;42.00
9225;BME280;4647;48.072;11.616;2023-05-20T11:15:48;95080.28;;;23.42;42.04
9225;BME280;4647;48.072;11.616;2023-05-20T11:18:16;95076.84;;;23.64;40.43
9225;BME280;4647;48.072;11.616;2023-05-20T11:20:45;95057.66;;;23.38;40.96
9225;BME280;4647;48.072;11.616;2023-05-20T11:23:14;95058.13;;;23.25;41.60
9225;BME280;4647;48.072;11.616;2023-05-20T11:25:43;95060.91;;;23.36;42.32
9225;BME280;4647;48.072;11.616;2023-05-20T11:28:12;95056.66;;;23.41;40.68
9225;BME280;4647;48.072;11.616;2023-05-20T11:30:44;95059.00;;;23.81;40.16
9225;BME280;4647;48.072;11.616;2023-05-20T11:33:13;95058.78;;;23.96;40.41
9225;BME280;4647;48.072;11.616;2023-05-20T11:35:44;95053.34;;;23.25;41.30
9225;BME280;4647;48.072;11.616;2023-05-20T11:38:13;95048.09;;;23.27;42.06
9225;BME280;4647;48.072;11.616;2023-05-20T11:40:45;95044.81;;;23.29;41.51
9225;BME280;4647;48.072;11.616;2023-05-20T11:43:14;95045.75;;;23.09;41.30
9225;BME280;4647;48.072;11.616;2023-05-20T11:45:46;95043.22;;;23.00;41.19
9225;BME280;4647;48.072;11.616;2023-05-20T11:48:15;95046.41;;;23.58;40.50
9225;BME280;4647;48.072;11.616;2023-05-20T11:50:45;95036.97;;;23.11;39.99
9225;BME280;4647;48.072;11.616;2023-05-20T11:53:16;95035.28;;;23.36;39.81
9225;BME280;4647;48.072;11.616;2023-05-20T11:55:45;95007.88;;;23.26;40.60
9225;BME280;4647;48.072;11.616;2023-05-20T11:58:15;95032.84;;;23.71;39.45
9225;BME280;4647;48.072;11.616;2023-05-20T12:00:48;95021.78;;;24.05;39.12
9225;BME280;4647;48.072;11.616;2023-05-20T12:03:17;95021.00;;;24.27;39.32
9225;BME280;4647;48.072;11.616;2023-05-20T12:05:46;95029.56;;;24.23;40.02
9225;BME280;4647;48.072;11.616;2023-05-20T12:08:15;95029.56;;;24.06;38.31
9225;BME280;4647;48.072;11.616;2023-05-20T12:10:43;95025.03;;;24.03;38.61
9225;BME280;4647;48.072;11.616;2023-05-20T12:13:12;95023.78;;;23.87;38.75
9225;BME280;4647;48.072;11.616;2023-05-20T12:15:40;95015.72;;;23.89;39.15
9225;BME280;4647;48.072;11.616;2023-05-20T12:18:11;95018.78;;;23.69;38.49
9225;BME280;4647;48.072;11.616;2023-05-20T12:20:41;95027.28;;;23.66;38.95
9225;BME280;4647;48.072;11.616;2023-05-20T12:23:11;95013.19;;;23.52;38.69
9225;BME280;4647;48.072;11.616;2023-05-20T12:25:40;95000.38;;;24.22;38.33
9225;BME280;4647;48.072;11.616;2023-05-20T12:28:13;95026.75;;;24.51;37.69
9225;BME280;4647;48.072;11.616;2023-05-20T12:30:42;95023.06;;;25.06;37.51
9225;BME280;4647;48.072;11.616;2023-05-20T12:33:13;95018.84;;;24.89;37.45
9225;BME280;4647;48.072;11.616;2023-05-20T12:35:42;94998.53;;;24.64;37.47
9225;BME280;4647;48.072;11.616;2023-05-20T12:38:11;95024.88;;;24.82;36.95
9225;BME280;4647;48.072;11.616;2023-05-20T12:40:39;95025.34;;;25.02;36.34
9225;BME280;4647;48.072;11.616;2023-05-20T12:43:08;95002.81;;;24.65;36.85
9225;BME280;4647;48.072;11.616;2023-05-20T12:45:37;95014.16;;;24.50;36.47
9225;BME280;4647;48.072;11.616;2023-05-20T12:48:05;95026.19;;;24.75;37.07
9225;BME280;4647;48.072;11.616;2023-05-20T12:50:36;95016.53;;;24.98;36.20
9225;BME280;4647;48.072;11.616;2023-05-20T12:53:05;95005.41;;;24.29;36.91
9225;BME280;4647;48.072;11.616;2023-05-20T12:55:33;95016.47;;;24.24;37.67
9225;BME280;4647;48.072;11.616;2023-05-20T12:58:03;95008.19;;;23.79;38.02
9225;BME280;4647;48.072;11.616;2023-05-20T13:00:33;95012.19;;;24.39;37.73
9225;BME280;4647;48.072;11.616;2023-05-20T13:03:01;95007.94;;;24.16;37.98
9225;BME280;4647;48.072;11.616;2023-05-20T13:05:30;94998.63;;;23.85;38.20
9225;BME280;4647;48.072;11.616;2023-05-20T13:08:01;95003.13;;;23.44;38.25
9225;BME280;4647;48.072;11.616;2023-05-20T13:10:30;95007.69;;;24.03;37.50
9225;BME280;4647;48.072;11.616;2023-05-20T13:12:59;95000.59;;;24.35;37.77
9225;BME280;4647;48.072;11.616;2023-05-20T13:15:27;95008.34;;;24.65;38.24
9225;BME280;4647;48.072;11.616;2023-05-20T13:17:57;94979.91;;;24.53;37.52
9225;BME280;4647;48.072;11.616;2023-05-20T13:20:28;95003.63;;;24.26;38.38
9225;BME280;4647;48.072;11.616;2023-05-20T13:22:56;95001.63;;;24.21;38.97